Cape Fair, Missouri
Current Conditions -  °F | °C
As of 8:35 PM on Wednesday 22 Oct 2014 (Local Time) from KFWB Reporting Station
Broken Clouds Broken Clouds  
Wind Chill: 57°   Ceiling: 4000
Heat Index: 57°   Visibility: 10mi
Dew Point: 48°   Wind: 7mph
Humidity: 72%   Direction: 110°ESE
Pressure: 30.19"   Gusts: NA
Location:  36.73°N, 93.51°W
Report Text: KFWB 230135Z AUTO 11006KT 10SM BKN040 14/09 A3019 RMK AO2
Loading
Personal Weather Stations






























Interactive Weather Map
Tropical Storm Tracking
New forecast layout! Learn more

10-Day Weather Forecast

Advertisements
Track Severe Weather on mobile